createdAt,value
2019-01-25T00:01:11.904Z,65.83
2019-01-25T00:03:40.922Z,76.75
2019-01-25T00:06:10.637Z,68.62
2019-01-25T00:08:39.609Z,64.12
2019-01-25T00:11:08.605Z,65.50
2019-01-25T00:13:37.917Z,65.20
2019-01-25T00:16:07.100Z,68.47
2019-01-25T00:18:38.174Z,74.60
2019-01-25T00:21:07.185Z,67.97
2019-01-25T00:23:36.258Z,58.78
2019-01-25T00:26:05.641Z,69.58
2019-01-25T00:28:34.641Z,59.55
2019-01-25T00:31:04.686Z,62.17
2019-01-25T00:33:33.681Z,71.65
2019-01-25T00:36:02.681Z,67.25
2019-01-25T00:38:32.492Z,65.30
2019-01-25T00:41:01.483Z,66.40
2019-01-25T00:43:32.396Z,60.30
2019-01-25T00:46:01.555Z,60.20
2019-01-25T00:48:30.588Z,71.17
2019-01-25T00:50:59.660Z,70.97
2019-01-25T00:53:31.938Z,65.22
2019-01-25T00:56:02.913Z,72.82
2019-01-25T00:58:31.898Z,64.07
2019-01-25T01:01:00.965Z,68.62
2019-01-25T01:03:29.966Z,75.40
2019-01-25T01:05:59.885Z,61.25
2019-01-25T01:08:28.906Z,64.05
2019-01-25T01:11:03.862Z,73.00
2019-01-25T01:13:32.966Z,65.25
2019-01-25T01:16:02.362Z,75.05
2019-01-25T01:18:31.345Z,67.50
2019-01-25T01:21:00.238Z,71.47
2019-01-25T01:23:29.242Z,62.60
2019-01-25T01:25:58.368Z,70.40
2019-01-25T01:28:27.351Z,68.25
2019-01-25T01:30:58.426Z,58.23
2019-01-25T01:33:27.473Z,72.42
2019-01-25T01:36:02.352Z,73.97
2019-01-25T01:38:33.374Z,72.85
2019-01-25T01:41:02.377Z,58.87
2019-01-25T01:43:33.576Z,72.05
2019-01-25T01:46:02.584Z,68.28
2019-01-25T01:48:31.734Z,69.75
2019-01-25T01:51:00.762Z,61.50
2019-01-25T01:53:32.817Z,66.90
2019-01-25T01:56:02.857Z,67.60
2019-01-25T01:58:31.753Z,80.25
2019-01-25T02:01:00.670Z,76.35
2019-01-25T02:03:30.505Z,65.47
2019-01-25T02:06:00.581Z,70.28
2019-01-25T02:08:29.593Z,74.03
2019-01-25T02:10:58.666Z,75.75
2019-01-25T02:13:27.668Z,75.30
2019-01-25T02:15:56.674Z,73.52
2019-01-25T02:18:25.667Z,75.37
2019-01-25T02:20:56.777Z,74.10
2019-01-25T02:23:25.808Z,65.95
2019-01-25T02:25:54.876Z,60.33
2019-01-25T02:28:23.802Z,70.87
2019-01-25T02:30:53.885Z,81.30
2019-01-25T02:33:22.801Z,74.45
2019-01-25T02:35:52.646Z,67.82
2019-01-25T02:38:22.628Z,80.38
2019-01-25T02:40:51.704Z,83.80
2019-01-25T02:43:21.708Z,72.82
2019-01-25T02:45:50.676Z,67.32
2019-01-25T02:48:19.717Z,70.62
2019-01-25T02:50:50.677Z,66.77
2019-01-25T02:53:25.398Z,65.60
2019-01-25T02:55:54.387Z,63.78
2019-01-25T02:58:23.381Z,71.72
2019-01-25T03:00:54.374Z,61.68
2019-01-25T03:03:23.388Z,57.88
2019-01-25T03:05:54.429Z,71.05
2019-01-25T03:08:23.538Z,60.58
2019-01-25T03:10:52.539Z,68.45
2019-01-25T03:13:21.622Z,70.60
2019-01-25T03:15:50.698Z,60.80
2019-01-25T03:18:19.690Z,61.53
2019-01-25T03:20:51.669Z,63.50
2019-01-25T03:23:20.669Z,65.72
2019-01-25T03:25:49.698Z,63.68
2019-01-25T03:28:18.658Z,65.17
2019-01-25T03:30:47.737Z,57.05
2019-01-25T03:33:17.646Z,69.72
2019-01-25T03:35:46.658Z,53.60
2019-01-25T03:38:15.714Z,58.17
2019-01-25T03:40:44.640Z,57.10
2019-01-25T03:43:13.624Z,59.58
2019-01-25T03:45:42.717Z,56.60
2019-01-25T03:48:11.796Z,53.55
2019-01-25T03:50:40.790Z,66.25
2019-01-25T03:53:15.753Z,64.65
2019-01-25T03:55:44.744Z,77.12
2019-01-25T03:58:13.750Z,67.05
2019-01-25T04:00:42.806Z,57.83
2019-01-25T04:03:12.828Z,63.70
2019-01-25T04:05:41.833Z,61.77
2019-01-25T04:08:10.842Z,69.15
2019-01-25T04:10:39.818Z,60.25
2019-01-25T04:13:08.843Z,83.15
2019-01-25T04:15:37.890Z,65.92
2019-01-25T04:18:06.927Z,53.42
2019-01-25T04:20:35.903Z,63.90
2019-01-25T04:23:05.168Z,77.90
2019-01-25T04:25:34.074Z,66.57
2019-01-25T04:28:03.132Z,65.32
2019-01-25T04:30:33.181Z,73.52
2019-01-25T04:33:02.372Z,73.00
2019-01-25T04:35:32.292Z,71.50
2019-01-25T04:38:01.468Z,76.53
2019-01-25T04:40:30.419Z,76.77
2019-01-25T04:42:59.399Z,73.83
2019-01-25T04:45:28.280Z,73.87
2019-01-25T04:47:57.419Z,84.70
2019-01-25T04:50:27.413Z,66.95
2019-01-25T04:52:56.480Z,78.37
2019-01-25T04:55:33.090Z,83.10
2019-01-25T04:58:16.098Z,86.05
2019-01-25T05:00:45.041Z,74.15
2019-01-25T05:03:14.095Z,69.22
2019-01-25T05:05:43.069Z,76.60
2019-01-25T05:08:19.720Z,81.90
2019-01-25T05:10:49.739Z,73.67
2019-01-25T05:13:18.711Z,72.45
2019-01-25T05:15:47.705Z,88.00
2019-01-25T05:18:17.041Z,69.20
2019-01-25T05:20:46.036Z,71.55
2019-01-25T05:23:15.196Z,64.55
2019-01-25T05:25:44.143Z,75.85
2019-01-25T05:28:17.611Z,69.75
2019-01-25T05:31:00.858Z,59.80
2019-01-25T05:33:29.771Z,64.35
2019-01-25T05:35:58.636Z,77.27
2019-01-25T05:38:27.613Z,70.15
2019-01-25T05:40:56.668Z,62.55
2019-01-25T05:43:25.549Z,60.85
2019-01-25T05:45:54.420Z,67.12
2019-01-25T05:48:29.896Z,61.50
2019-01-25T05:51:05.148Z,62.70
2019-01-25T05:53:35.062Z,69.53
2019-01-25T05:56:05.429Z,69.67
2019-01-25T05:58:34.645Z,72.70
2019-01-25T06:01:03.523Z,54.95
2019-01-25T06:03:32.435Z,67.75
2019-01-25T06:06:03.047Z,71.35
2019-01-25T06:08:33.205Z,64.70
2019-01-25T06:11:07.086Z,63.10
2019-01-25T06:13:36.082Z,77.37
2019-01-25T06:16:05.559Z,66.85
2019-01-25T06:18:34.472Z,63.25
2019-01-25T06:21:04.253Z,66.67
2019-01-25T06:23:33.203Z,65.22
2019-01-25T06:26:03.312Z,65.10
2019-01-25T06:28:33.269Z,62.23
2019-01-25T06:31:02.345Z,72.58
2019-01-25T06:33:31.361Z,73.55
2019-01-25T06:36:00.422Z,65.15
2019-01-25T06:38:34.472Z,63.45
2019-01-25T06:41:03.557Z,68.57
2019-01-25T06:43:32.596Z,64.35
2019-01-25T06:46:01.571Z,62.30
2019-01-25T06:48:31.632Z,68.83
2019-01-25T06:51:00.528Z,74.58
2019-01-25T06:53:29.451Z,74.45
2019-01-25T06:55:58.428Z,66.62
2019-01-25T06:58:49.184Z,72.60
2019-01-25T07:01:31.479Z,67.75
2019-01-25T07:04:00.431Z,65.28
2019-01-25T07:06:29.506Z,56.10
2019-01-25T07:08:59.119Z,67.45
2019-01-25T07:11:30.220Z,67.10
2019-01-25T07:14:01.140Z,55.05
2019-01-25T07:16:30.104Z,64.10
2019-01-25T07:18:59.093Z,72.55
2019-01-25T07:21:35.619Z,59.10
2019-01-25T07:24:06.021Z,60.73
2019-01-25T07:26:34.997Z,61.05
2019-01-25T07:29:04.097Z,55.60
2019-01-25T07:31:32.992Z,60.08
2019-01-25T07:34:02.099Z,63.38
2019-01-25T07:36:31.216Z,65.78
2019-01-25T07:39:00.137Z,60.78
2019-01-25T07:41:28.960Z,61.20
2019-01-25T07:43:57.915Z,63.87
2019-01-25T07:46:26.892Z,56.58
2019-01-25T07:48:55.836Z,66.55
2019-01-25T07:51:24.655Z,60.03
2019-01-25T07:53:54.008Z,61.02
2019-01-25T07:56:22.909Z,63.50
2019-01-25T07:58:51.758Z,53.83
2019-01-25T08:01:20.593Z,62.08
2019-01-25T08:03:49.396Z,63.20
2019-01-25T08:06:18.221Z,61.58
2019-01-25T08:08:47.046Z,56.68
2019-01-25T08:11:16.002Z,61.80
2019-01-25T08:13:45.109Z,68.15
2019-01-25T08:16:14.389Z,72.47
2019-01-25T08:18:45.373Z,70.37
2019-01-25T08:21:14.340Z,61.15
2019-01-25T08:23:43.321Z,70.65
2019-01-25T08:26:15.563Z,75.05
2019-01-25T08:28:44.857Z,63.63
2019-01-25T08:31:13.866Z,66.65
2019-01-25T08:33:42.748Z,67.08
2019-01-25T08:36:11.781Z,64.17
2019-01-25T08:38:40.835Z,68.92
2019-01-25T08:41:09.804Z,60.05
2019-01-25T08:43:38.761Z,66.60
2019-01-25T08:46:07.931Z,66.72
2019-01-25T08:48:37.905Z,65.45
2019-01-25T08:51:06.878Z,59.65
2019-01-25T08:53:35.932Z,58.73
2019-01-25T08:56:05.277Z,70.50
2019-01-25T08:58:35.840Z,63.48
2019-01-25T09:01:05.374Z,66.65
2019-01-25T09:03:35.446Z,71.40
2019-01-25T09:06:04.694Z,61.42
2019-01-25T09:08:34.650Z,64.40
2019-01-25T09:11:03.703Z,76.45
2019-01-25T09:13:32.549Z,65.08
2019-01-25T09:16:02.604Z,66.53
2019-01-25T09:18:32.630Z,66.65
2019-01-25T09:21:01.641Z,62.05
2019-01-25T09:23:30.634Z,66.10
2019-01-25T09:26:01.052Z,73.67
2019-01-25T09:28:30.329Z,61.10
2019-01-25T09:30:59.240Z,61.28
2019-01-25T09:33:28.173Z,58.40
2019-01-25T09:35:57.142Z,59.73
2019-01-25T09:38:26.262Z,57.10
2019-01-25T09:40:56.268Z,69.00
2019-01-25T09:43:25.231Z,68.37
2019-01-25T09:45:55.230Z,63.50
2019-01-25T09:48:24.085Z,63.52
2019-01-25T09:50:53.119Z,66.82
2019-01-25T09:53:22.114Z,51.00
2019-01-25T09:55:51.085Z,51.88
2019-01-25T09:58:20.076Z,53.52
2019-01-25T10:00:53.054Z,51.75
2019-01-25T10:03:21.959Z,59.73
2019-01-25T10:05:50.900Z,57.80
2019-01-25T10:08:19.866Z,55.95
2019-01-25T10:10:48.851Z,46.65
2019-01-25T10:13:19.909Z,49.30
2019-01-25T10:15:48.976Z,50.48
2019-01-25T10:18:17.827Z,54.13
2019-01-25T10:20:48.873Z,50.38
2019-01-25T10:23:18.802Z,51.90
2019-01-25T10:25:56.160Z,55.00
2019-01-25T10:28:25.144Z,43.70
2019-01-25T10:30:54.223Z,49.77
2019-01-25T10:33:23.233Z,62.30
2019-01-25T10:35:53.248Z,48.55
2019-01-25T10:38:22.221Z,54.38
2019-01-25T10:40:51.129Z,52.90
2019-01-25T10:43:23.605Z,52.98
2019-01-25T10:45:54.635Z,48.70
2019-01-25T10:48:23.580Z,44.13
2019-01-25T10:50:52.577Z,42.73
2019-01-25T10:53:21.571Z,51.33
2019-01-25T10:55:50.517Z,42.73
2019-01-25T10:58:19.576Z,48.48
2019-01-25T11:00:48.496Z,46.05
2019-01-25T11:03:17.517Z,46.63
2019-01-25T11:05:46.485Z,44.75
2019-01-25T11:08:15.472Z,43.70
2019-01-25T11:10:44.373Z,47.03
2019-01-25T11:13:13.273Z,47.83
2019-01-25T11:15:42.258Z,54.35
2019-01-25T11:18:11.310Z,47.10
2019-01-25T11:20:40.286Z,42.45
2019-01-25T11:23:09.224Z,47.15
2019-01-25T11:25:41.488Z,46.60
2019-01-25T11:28:10.480Z,45.73
2019-01-25T11:30:39.468Z,52.08
2019-01-25T11:33:10.794Z,43.45
2019-01-25T11:35:39.625Z,41.23
2019-01-25T11:38:08.590Z,46.48
2019-01-25T11:40:40.409Z,46.28
2019-01-25T11:43:09.370Z,47.38
2019-01-25T11:45:38.319Z,45.38
2019-01-25T11:48:10.590Z,43.02
2019-01-25T11:50:39.540Z,38.08
2019-01-25T11:53:08.534Z,47.13
2019-01-25T11:55:37.458Z,40.00
2019-01-25T11:58:06.445Z,48.30
2019-01-25T12:00:36.988Z,46.80
2019-01-25T12:03:05.827Z,37.88
2019-01-25T12:05:34.733Z,44.33
2019-01-25T12:08:03.835Z,45.85
2019-01-25T12:10:32.764Z,42.43
2019-01-25T12:13:01.744Z,40.67
2019-01-25T12:15:30.725Z,36.40
2019-01-25T12:17:59.637Z,44.83
2019-01-25T12:20:29.929Z,40.43
2019-01-25T12:22:58.898Z,43.63
2019-01-25T12:25:27.880Z,36.90
2019-01-25T12:27:57.271Z,37.42
2019-01-25T12:30:31.526Z,40.10
2019-01-25T12:33:00.484Z,39.60
2019-01-25T12:35:31.548Z,42.48
2019-01-25T12:38:00.556Z,37.35
2019-01-25T12:40:29.524Z,34.85
2019-01-25T12:42:58.427Z,40.00
2019-01-25T12:45:27.930Z,33.18
2019-01-25T12:47:57.002Z,38.23
2019-01-25T12:50:49.681Z,41.05
2019-01-25T12:53:20.616Z,37.98
2019-01-25T12:55:49.601Z,36.93
2019-01-25T12:58:18.491Z,46.02
2019-01-25T13:00:47.417Z,47.13
2019-01-25T13:03:16.253Z,37.93
2019-01-25T13:05:45.329Z,44.25
2019-01-25T13:08:14.146Z,34.75
2019-01-25T13:10:43.133Z,40.00
2019-01-25T13:13:12.117Z,39.10
2019-01-25T13:15:41.122Z,38.20
2019-01-25T13:18:10.088Z,36.73
2019-01-25T13:20:39.657Z,43.23
2019-01-25T13:23:08.706Z,41.58
2019-01-25T13:25:37.686Z,42.85
2019-01-25T13:28:06.778Z,44.40
2019-01-25T13:30:35.832Z,38.28
2019-01-25T13:33:05.088Z,42.75
2019-01-25T13:35:34.133Z,40.10
2019-01-25T13:38:03.164Z,40.05
2019-01-25T13:40:33.176Z,42.58
2019-01-25T13:43:03.255Z,47.60
2019-01-25T13:45:38.449Z,38.50
2019-01-25T13:48:08.513Z,45.12
2019-01-25T13:50:37.506Z,37.20
2019-01-25T13:53:06.501Z,42.08
2019-01-25T13:55:35.393Z,39.13
2019-01-25T13:58:04.401Z,32.33
2019-01-25T14:00:34.433Z,33.30
2019-01-25T14:03:03.448Z,34.33
2019-01-25T14:05:33.492Z,27.70
2019-01-25T14:08:02.502Z,23.80
2019-01-25T14:10:33.910Z,20.88
2019-01-25T14:13:02.877Z,29.25
2019-01-25T14:15:32.661Z,26.52
2019-01-25T14:18:02.436Z,27.70
2019-01-25T14:20:32.154Z,27.35
2019-01-25T14:23:01.424Z,27.10
2019-01-25T14:25:31.397Z,24.02
2019-01-25T14:28:00.397Z,30.48
2019-01-25T14:30:41.319Z,21.93
2019-01-25T14:33:10.350Z,25.37
2019-01-25T14:35:40.015Z,24.43
2019-01-25T14:38:12.121Z,21.30
2019-01-25T14:40:41.101Z,24.02
2019-01-25T14:43:11.664Z,28.92
2019-01-25T14:45:40.936Z,24.65
2019-01-25T14:48:09.922Z,25.10
2019-01-25T14:50:38.916Z,20.65
2019-01-25T14:53:08.824Z,20.17
2019-01-25T14:55:37.849Z,23.35
2019-01-25T14:58:07.589Z,24.55
2019-01-25T15:00:36.587Z,20.82
2019-01-25T15:03:05.826Z,22.37
2019-01-25T15:05:34.654Z,22.17
2019-01-25T15:08:03.737Z,22.45
2019-01-25T15:10:32.834Z,20.02
2019-01-25T15:13:04.588Z,21.82
2019-01-25T15:15:34.585Z,21.62
2019-01-25T15:18:03.994Z,24.67
2019-01-25T15:20:33.000Z,20.05
2019-01-25T15:23:02.082Z,26.15
2019-01-25T15:25:31.879Z,24.15
2019-01-25T15:28:00.912Z,23.90
2019-01-25T15:30:31.968Z,25.45
2019-01-25T15:33:01.050Z,24.72
2019-01-25T15:35:30.165Z,22.20
2019-01-25T15:37:59.214Z,20.40
2019-01-25T15:40:28.202Z,17.60
2019-01-25T15:42:57.221Z,19.90
2019-01-25T15:45:26.302Z,22.77
2019-01-25T15:47:55.321Z,20.85
2019-01-25T15:50:29.331Z,21.52
2019-01-25T15:52:58.538Z,20.32
2019-01-25T15:55:28.309Z,33.15
2019-01-25T15:57:57.278Z,37.15
2019-01-25T16:00:27.717Z,38.83
2019-01-25T16:02:56.727Z,36.73
2019-01-25T16:05:25.918Z,37.30
2019-01-25T16:07:54.905Z,47.38
2019-01-25T16:10:25.914Z,39.33
2019-01-25T16:12:54.960Z,43.50
2019-01-25T16:15:25.980Z,45.55
2019-01-25T16:17:55.149Z,34.20
2019-01-25T16:20:24.141Z,40.10
2019-01-25T16:22:57.668Z,46.28
2019-01-25T16:25:34.507Z,40.58
2019-01-25T16:28:03.596Z,44.70
2019-01-25T16:30:34.973Z,48.87
2019-01-25T16:33:03.996Z,46.33
2019-01-25T16:35:32.961Z,39.25
2019-01-25T16:38:01.818Z,43.33
2019-01-25T16:40:30.794Z,39.53
2019-01-25T16:42:59.831Z,41.95
2019-01-25T16:45:43.128Z,43.58
2019-01-25T16:48:12.316Z,42.13
2019-01-25T16:50:41.474Z,46.13
2019-01-25T16:53:12.496Z,45.17
2019-01-25T16:55:41.470Z,43.10
2019-01-25T16:58:10.445Z,40.52
2019-01-25T17:00:42.102Z,35.78
2019-01-25T17:03:11.187Z,43.35
2019-01-25T17:05:40.175Z,39.90
2019-01-25T17:08:09.159Z,38.33
2019-01-25T17:10:38.144Z,37.10
2019-01-25T17:13:15.469Z,36.58
2019-01-25T17:15:48.529Z,36.68
2019-01-25T17:18:17.589Z,45.73
2019-01-25T17:20:46.673Z,33.80
2019-01-25T17:23:15.634Z,34.67
2019-01-25T17:25:44.672Z,37.28
2019-01-25T17:28:21.165Z,30.27
2019-01-25T17:30:50.222Z,41.00
2019-01-25T17:33:22.054Z,35.20
2019-01-25T17:35:51.013Z,36.80
2019-01-25T17:38:19.922Z,45.63
2019-01-25T17:40:48.833Z,33.78
2019-01-25T17:43:17.730Z,44.38
2019-01-25T17:45:48.768Z,37.25
2019-01-25T17:48:17.800Z,37.10
2019-01-25T17:50:46.812Z,32.70
2019-01-25T17:53:17.718Z,29.25
2019-01-25T17:55:46.675Z,29.50
2019-01-25T17:58:17.225Z,33.25
2019-01-25T18:00:52.975Z,33.23
2019-01-25T18:03:22.012Z,29.48
2019-01-25T18:05:51.008Z,31.93
2019-01-25T18:08:20.087Z,36.95
2019-01-25T18:10:49.005Z,29.60
2019-01-25T18:13:18.001Z,30.82
2019-01-25T18:15:46.972Z,27.02
2019-01-25T18:18:16.070Z,31.57
2019-01-25T18:20:45.048Z,33.53
2019-01-25T18:23:13.951Z,33.02
2019-01-25T18:25:55.920Z,33.90
2019-01-25T18:28:28.829Z,32.67
2019-01-25T18:31:11.392Z,30.88
2019-01-25T18:33:40.285Z,26.60
2019-01-25T18:36:09.260Z,28.20
2019-01-25T18:38:38.224Z,33.73
2019-01-25T18:41:07.297Z,24.12
2019-01-25T18:43:36.325Z,27.98
2019-01-25T18:46:05.801Z,22.30
2019-01-25T18:48:34.882Z,24.27
2019-01-25T18:51:03.857Z,22.85
2019-01-25T18:53:33.028Z,23.95
2019-01-25T18:56:02.110Z,21.20
2019-01-25T18:58:32.460Z,22.65
2019-01-25T19:01:01.368Z,25.00
2019-01-25T19:03:30.418Z,24.45
2019-01-25T19:05:59.342Z,27.98
2019-01-25T19:08:28.282Z,28.02
2019-01-25T19:10:57.342Z,24.77
2019-01-25T19:13:26.220Z,30.52
2019-01-25T19:15:55.348Z,28.23
2019-01-25T19:18:24.419Z,28.92
2019-01-25T19:20:53.418Z,25.90
2019-01-25T19:23:22.413Z,28.15
2019-01-25T19:25:51.347Z,24.57
2019-01-25T19:28:20.317Z,25.17
2019-01-25T19:30:49.641Z,27.85
2019-01-25T19:33:18.691Z,28.85
2019-01-25T19:35:48.714Z,23.05
2019-01-25T19:38:20.017Z,24.67
2019-01-25T19:40:50.219Z,21.05
2019-01-25T19:43:26.922Z,28.42
2019-01-25T19:45:55.951Z,29.05
2019-01-25T19:48:24.857Z,20.35
2019-01-25T19:50:53.974Z,30.17
2019-01-25T19:53:23.734Z,24.37
2019-01-25T19:55:52.861Z,21.10
2019-01-25T19:58:22.801Z,22.93
2019-01-25T20:00:51.797Z,22.85
2019-01-25T20:03:20.849Z,23.20
2019-01-25T20:05:50.426Z,24.57
2019-01-25T20:08:19.417Z,25.10
2019-01-25T20:10:48.459Z,26.17
2019-01-25T20:13:18.406Z,27.48
2019-01-25T20:15:47.444Z,27.73
2019-01-25T20:18:17.188Z,21.87
2019-01-25T20:20:46.261Z,23.25
2019-01-25T20:23:17.858Z,23.22
2019-01-25T20:25:46.901Z,19.23
2019-01-25T20:28:16.933Z,20.43
2019-01-25T20:30:49.698Z,20.50
2019-01-25T20:33:16.653Z,22.55
2019-01-25T20:35:45.657Z,21.97
2019-01-25T20:38:14.653Z,18.02
2019-01-25T20:40:43.728Z,17.17
2019-01-25T20:43:13.136Z,20.12
2019-01-25T20:45:42.564Z,25.45
2019-01-25T20:48:11.640Z,16.93
2019-01-25T20:50:40.599Z,16.97
2019-01-25T20:53:10.755Z,19.05
2019-01-25T20:55:39.942Z,20.32
2019-01-25T20:58:09.325Z,16.32
2019-01-25T21:00:39.919Z,21.05
2019-01-25T21:03:11.391Z,18.87
2019-01-25T21:05:40.283Z,16.77
2019-01-25T21:08:09.331Z,20.88
2019-01-25T21:10:38.500Z,20.57
2019-01-25T21:13:07.811Z,13.83
2019-01-25T21:15:36.860Z,19.42
2019-01-25T21:18:06.529Z,20.00
2019-01-25T21:20:43.259Z,17.87
2019-01-25T21:23:12.317Z,18.87
2019-01-25T21:25:41.524Z,17.17
2019-01-25T21:28:10.816Z,17.17
2019-01-25T21:30:40.607Z,18.55
2019-01-25T21:33:11.976Z,17.42
2019-01-25T21:35:40.980Z,17.55
2019-01-25T21:38:09.989Z,17.02
2019-01-25T21:40:39.010Z,20.05
2019-01-25T21:43:08.043Z,17.67
2019-01-25T21:45:42.905Z,20.25
2019-01-25T21:48:14.238Z,18.15
2019-01-25T21:50:44.245Z,20.20
2019-01-25T21:53:13.539Z,15.72
2019-01-25T21:55:42.592Z,17.75
2019-01-25T21:58:11.726Z,16.00
2019-01-25T22:00:40.751Z,18.50
2019-01-25T22:03:09.682Z,19.80
2019-01-25T22:05:38.733Z,22.20
2019-01-25T22:08:20.137Z,19.92
2019-01-25T22:10:55.486Z,22.27
2019-01-25T22:13:24.338Z,17.32
2019-01-25T22:15:53.341Z,16.17
2019-01-25T22:18:22.291Z,20.45
2019-01-25T22:20:52.213Z,19.42
2019-01-25T22:23:21.269Z,20.15
2019-01-25T22:25:50.387Z,20.97
2019-01-25T22:28:19.360Z,20.70
2019-01-25T22:30:48.373Z,22.10
2019-01-25T22:33:18.205Z,19.85
2019-01-25T22:35:47.258Z,22.67
2019-01-25T22:38:16.241Z,22.98
2019-01-25T22:40:45.229Z,18.80
2019-01-25T22:43:14.152Z,17.75
2019-01-25T22:45:43.572Z,20.02
2019-01-25T22:48:12.614Z,20.80
2019-01-25T22:50:41.659Z,16.75
2019-01-25T22:53:10.730Z,16.62
2019-01-25T22:55:39.806Z,18.65
2019-01-25T22:58:08.806Z,15.75
2019-01-25T23:00:57.400Z,17.98
2019-01-25T23:03:36.359Z,19.98
2019-01-25T23:06:32.849Z,20.17
2019-01-25T23:09:08.205Z,17.60
2019-01-25T23:11:37.235Z,20.48
2019-01-25T23:14:06.989Z,21.12
2019-01-25T23:16:35.982Z,28.15
2019-01-25T23:19:05.409Z,21.40
2019-01-25T23:21:34.446Z,21.60
2019-01-25T23:24:03.396Z,17.70
2019-01-25T23:26:32.425Z,21.97
2019-01-25T23:29:04.373Z,21.33
2019-01-25T23:31:33.337Z,19.85
2019-01-25T23:34:02.364Z,20.95
2019-01-25T23:36:31.297Z,21.93
2019-01-25T23:39:00.386Z,21.35
2019-01-25T23:41:29.377Z,20.68
2019-01-25T23:43:58.365Z,16.95
2019-01-25T23:46:27.399Z,21.93
2019-01-25T23:48:56.344Z,21.95
2019-01-25T23:51:25.520Z,18.48
2019-01-25T23:53:54.395Z,20.90
2019-01-25T23:56:23.410Z,19.73
2019-01-25T23:58:52.333Z,25.05
